createdAt,value
2023-03-03T00:01:06.062Z,3.50
2023-03-03T00:03:34.491Z,3.50
2023-03-03T00:06:03.810Z,3.50
2023-03-03T00:08:33.467Z,3.50
2023-03-03T00:11:03.260Z,3.40
2023-03-03T00:13:32.876Z,3.30
2023-03-03T00:16:15.326Z,3.30
2023-03-03T00:18:46.071Z,3.30
2023-03-03T00:21:26.470Z,3.30
2023-03-03T00:23:56.724Z,3.20
2023-03-03T00:26:30.328Z,3.20
2023-03-03T00:28:58.406Z,3.10
2023-03-03T00:31:33.026Z,3.10
2023-03-03T00:34:21.241Z,3.10
2023-03-03T00:36:52.921Z,3.10
2023-03-03T00:39:28.355Z,3.00
2023-03-03T00:41:57.566Z,3.00
2023-03-03T00:44:42.850Z,3.00
2023-03-03T00:47:28.779Z,2.90
2023-03-03T00:50:33.353Z,2.90
2023-03-03T00:53:12.183Z,2.90
2023-03-03T00:55:41.756Z,2.80
2023-03-03T00:58:09.861Z,2.80
2023-03-03T01:00:39.670Z,2.80
2023-03-03T01:03:09.597Z,2.80
2023-03-03T01:05:37.725Z,2.70
2023-03-03T01:08:06.147Z,2.70
2023-03-03T01:10:37.557Z,2.70
2023-03-03T01:13:07.715Z,2.70
2023-03-03T01:15:35.901Z,2.60
2023-03-03T01:18:04.072Z,2.60
2023-03-03T01:20:31.989Z,2.50
2023-03-03T01:22:59.939Z,2.50
2023-03-03T01:25:29.553Z,2.50
2023-03-03T01:27:58.164Z,2.50
2023-03-03T01:30:28.384Z,2.40
2023-03-03T01:32:56.337Z,2.40
2023-03-03T01:35:24.705Z,2.40
2023-03-03T01:37:52.811Z,2.30
2023-03-03T01:40:23.997Z,2.30
2023-03-03T01:42:52.644Z,2.30
2023-03-03T01:45:22.940Z,2.20
2023-03-03T01:48:00.211Z,2.20
2023-03-03T01:50:35.488Z,2.20
2023-03-03T01:53:05.864Z,2.10
2023-03-03T01:55:37.658Z,2.10
2023-03-03T01:58:10.020Z,2.10
2023-03-03T02:00:42.072Z,2.10
2023-03-03T02:03:11.685Z,2.00
2023-03-03T02:05:42.281Z,2.00
2023-03-03T02:08:13.593Z,2.00
2023-03-03T02:10:41.753Z,1.90
2023-03-03T02:13:09.767Z,1.90
2023-03-03T02:15:37.687Z,1.80
2023-03-03T02:18:07.642Z,1.80
2023-03-03T02:20:51.793Z,1.80
2023-03-03T02:23:24.330Z,1.70
2023-03-03T02:26:08.238Z,1.70
2023-03-03T02:28:38.936Z,1.70
2023-03-03T02:31:13.049Z,1.60
2023-03-03T02:33:41.500Z,1.60
2023-03-03T02:36:13.438Z,1.60
2023-03-03T02:38:45.738Z,1.60
2023-03-03T02:41:22.433Z,1.50
2023-03-03T02:43:57.590Z,1.50
2023-03-03T02:46:25.545Z,1.50
2023-03-03T02:48:53.581Z,1.40
2023-03-03T02:51:21.560Z,1.40
2023-03-03T02:53:49.476Z,1.40
2023-03-03T02:56:19.092Z,1.40
2023-03-03T02:58:47.043Z,1.30
2023-03-03T03:01:15.252Z,1.30
2023-03-03T03:03:43.272Z,1.30
2023-03-03T03:06:11.523Z,1.30
2023-03-03T03:08:39.525Z,1.30
2023-03-03T03:11:07.954Z,1.30
2023-03-03T03:13:37.167Z,1.30
2023-03-03T03:16:05.637Z,1.30
2023-03-03T03:18:33.544Z,1.30
2023-03-03T03:21:08.251Z,1.30
2023-03-03T03:23:36.924Z,1.30
2023-03-03T03:26:05.416Z,1.30
2023-03-03T03:28:33.393Z,1.30
2023-03-03T03:31:03.011Z,1.30
2023-03-03T03:33:30.959Z,1.30
2023-03-03T03:35:59.635Z,1.20
2023-03-03T03:38:29.755Z,1.20
2023-03-03T03:40:57.734Z,1.30
2023-03-03T03:43:26.050Z,1.20
2023-03-03T03:45:54.375Z,1.20
2023-03-03T03:48:23.660Z,1.20
2023-03-03T03:50:51.971Z,1.20
2023-03-03T03:53:20.460Z,1.20
2023-03-03T03:55:48.678Z,1.20
2023-03-03T03:58:17.927Z,1.30
2023-03-03T04:00:47.271Z,1.30
2023-03-03T04:03:15.425Z,1.30
2023-03-03T04:05:44.830Z,1.30
2023-03-03T04:08:12.984Z,1.30
2023-03-03T04:10:41.112Z,1.30
2023-03-03T04:13:08.982Z,1.40
2023-03-03T04:15:36.926Z,1.40
2023-03-03T04:18:05.655Z,1.40
2023-03-03T04:20:33.463Z,1.40
2023-03-03T04:23:03.010Z,1.50
2023-03-03T04:25:30.897Z,1.50
2023-03-03T04:27:58.742Z,1.50
2023-03-03T04:30:27.063Z,1.50
2023-03-03T04:32:55.002Z,1.50
2023-03-03T04:35:23.068Z,1.60
2023-03-03T04:37:51.138Z,1.60
2023-03-03T04:40:20.596Z,1.60
2023-03-03T04:42:48.542Z,1.60
2023-03-03T04:45:16.838Z,1.60
2023-03-03T04:47:45.077Z,1.60
2023-03-03T04:50:13.382Z,1.60
2023-03-03T04:52:41.269Z,1.60
2023-03-03T04:55:10.713Z,1.60
2023-03-03T04:57:40.026Z,1.60
2023-03-03T05:00:09.432Z,1.70
2023-03-03T05:02:37.521Z,1.70
2023-03-03T05:05:06.232Z,1.70
2023-03-03T05:07:34.380Z,1.70
2023-03-03T05:10:02.211Z,1.70
2023-03-03T05:12:30.137Z,1.70
2023-03-03T05:14:59.336Z,1.80
2023-03-03T05:17:27.202Z,1.80
2023-03-03T05:19:57.272Z,1.80
2023-03-03T05:22:26.033Z,1.80
2023-03-03T05:24:54.038Z,1.80
2023-03-03T05:27:22.041Z,1.80
2023-03-03T05:29:50.333Z,1.80
2023-03-03T05:32:20.544Z,1.90
2023-03-03T05:34:52.494Z,1.90
2023-03-03T05:37:20.390Z,1.90
2023-03-03T05:39:48.288Z,1.90
2023-03-03T05:42:16.190Z,1.90
2023-03-03T05:44:44.131Z,1.90
2023-03-03T05:47:12.519Z,2.00
2023-03-03T05:49:41.888Z,2.00
2023-03-03T05:52:09.892Z,2.00
2023-03-03T05:54:37.864Z,2.00
2023-03-03T05:57:05.816Z,2.00
2023-03-03T05:59:33.688Z,2.00
2023-03-03T06:02:01.713Z,2.00
2023-03-03T06:04:29.619Z,2.00
2023-03-03T06:06:58.921Z,2.00
2023-03-03T06:09:27.298Z,2.00
2023-03-03T06:11:55.498Z,2.00
2023-03-03T06:14:26.935Z,2.10
2023-03-03T06:16:55.069Z,2.10
2023-03-03T06:19:22.986Z,2.10
2023-03-03T06:21:50.970Z,2.10
2023-03-03T06:24:20.208Z,2.10
2023-03-03T06:26:48.257Z,2.10
2023-03-03T06:29:16.292Z,2.10
2023-03-03T06:31:44.789Z,2.10
2023-03-03T06:34:12.701Z,2.10
2023-03-03T06:36:40.578Z,2.10
2023-03-03T06:39:08.480Z,2.20
2023-03-03T06:41:37.800Z,2.20
2023-03-03T06:44:06.230Z,2.20
2023-03-03T06:46:34.150Z,2.20
2023-03-03T06:49:03.093Z,2.30
2023-03-03T06:51:35.025Z,2.20
2023-03-03T06:54:07.807Z,2.30
2023-03-03T06:56:38.419Z,2.30
2023-03-03T06:59:13.692Z,2.30
2023-03-03T07:01:42.329Z,2.30
2023-03-03T07:04:23.373Z,2.30
2023-03-03T07:06:51.395Z,2.40
2023-03-03T07:09:24.011Z,2.30
2023-03-03T07:11:54.717Z,2.40
2023-03-03T07:14:22.602Z,2.30
2023-03-03T07:16:57.253Z,2.30
2023-03-03T07:19:31.573Z,2.30
2023-03-03T07:21:59.757Z,2.30
2023-03-03T07:24:29.289Z,2.20
2023-03-03T07:27:02.407Z,2.30
2023-03-03T07:29:31.503Z,2.20
2023-03-03T07:32:00.590Z,2.20
2023-03-03T07:34:37.558Z,2.30
2023-03-03T07:37:14.698Z,2.20
2023-03-03T07:39:46.262Z,2.20
2023-03-03T07:42:23.598Z,2.30
2023-03-03T07:44:53.255Z,2.30
2023-03-03T07:47:24.538Z,2.30
2023-03-03T07:49:54.564Z,2.30
2023-03-03T07:52:30.323Z,2.40
2023-03-03T07:55:01.008Z,2.40
2023-03-03T07:57:37.850Z,2.40
2023-03-03T08:00:49.157Z,2.50
2023-03-03T08:03:20.228Z,2.50
2023-03-03T08:05:50.370Z,2.60
2023-03-03T08:08:30.571Z,2.60
2023-03-03T08:11:00.154Z,2.60
2023-03-03T08:13:38.197Z,2.60
2023-03-03T08:16:26.530Z,2.60
2023-03-03T08:18:55.811Z,2.70
2023-03-03T08:21:25.325Z,2.70
2023-03-03T08:23:54.164Z,2.70
2023-03-03T08:26:23.223Z,2.70
2023-03-03T08:28:53.322Z,2.80
2023-03-03T08:31:38.401Z,2.80
2023-03-03T08:34:08.772Z,2.80
2023-03-03T08:36:36.731Z,2.80
2023-03-03T08:39:05.983Z,2.80
2023-03-03T08:41:33.998Z,2.80
2023-03-03T08:44:03.269Z,2.80
2023-03-03T08:46:31.586Z,2.90
2023-03-03T08:48:59.744Z,2.90
2023-03-03T08:51:27.704Z,2.90
2023-03-03T08:53:56.020Z,3.00
2023-03-03T08:56:24.293Z,3.00
2023-03-03T08:59:02.302Z,3.10
2023-03-03T09:01:32.864Z,3.10
2023-03-03T09:04:03.202Z,3.10
2023-03-03T09:06:31.531Z,3.20
2023-03-03T09:08:59.478Z,3.20
2023-03-03T09:11:29.209Z,3.30
2023-03-03T09:14:03.882Z,3.30
2023-03-03T09:16:38.313Z,3.30
2023-03-03T09:19:20.456Z,3.30
2023-03-03T09:21:48.382Z,3.30
2023-03-03T09:24:25.716Z,3.40
2023-03-03T09:26:54.823Z,3.40
2023-03-03T09:29:29.142Z,3.50
2023-03-03T09:32:01.292Z,3.50
2023-03-03T09:34:40.296Z,3.60
2023-03-03T09:37:21.872Z,3.60
2023-03-03T09:39:51.900Z,3.60
2023-03-03T09:42:50.767Z,3.70
2023-03-03T09:45:55.151Z,3.80
2023-03-03T09:48:53.505Z,3.80
2023-03-03T09:51:42.614Z,3.90
2023-03-03T09:54:26.633Z,4.00
2023-03-03T09:57:06.349Z,4.00
2023-03-03T09:59:45.463Z,4.10
2023-03-03T10:02:39.045Z,4.10
2023-03-03T10:05:18.174Z,4.10
2023-03-03T10:07:56.572Z,4.10
2023-03-03T10:10:54.040Z,4.10
2023-03-03T10:13:42.398Z,4.10
2023-03-03T10:16:32.392Z,4.10
2023-03-03T10:19:04.025Z,4.20
2023-03-03T10:21:38.136Z,4.20
2023-03-03T10:24:20.582Z,4.30
2023-03-03T10:27:14.231Z,4.30
2023-03-03T10:29:51.933Z,4.40
2023-03-03T10:32:49.684Z,4.50
2023-03-03T10:35:32.188Z,4.60
2023-03-03T10:38:17.783Z,4.60
2023-03-03T10:40:51.923Z,4.70
2023-03-03T10:43:40.458Z,4.80
2023-03-03T10:46:24.930Z,4.90
2023-03-03T10:49:04.336Z,5.00
2023-03-03T10:51:40.598Z,5.00
2023-03-03T10:54:23.442Z,5.10
2023-03-03T10:56:59.942Z,5.20
2023-03-03T10:59:39.178Z,5.30
2023-03-03T11:02:17.917Z,5.40
2023-03-03T11:05:03.215Z,5.50
2023-03-03T11:07:36.476Z,5.60
2023-03-03T11:10:19.717Z,5.70
2023-03-03T11:12:57.595Z,5.70
2023-03-03T11:15:42.504Z,5.80
2023-03-03T11:18:36.439Z,5.90
2023-03-03T11:21:14.270Z,6.00
2023-03-03T11:24:14.446Z,6.00
2023-03-03T11:26:57.226Z,6.10
2023-03-03T11:29:37.079Z,6.20
2023-03-03T11:32:18.729Z,6.30
2023-03-03T11:34:57.585Z,6.30
2023-03-03T11:37:30.720Z,6.40
2023-03-03T11:40:03.840Z,6.50
2023-03-03T11:42:44.506Z,6.60
2023-03-03T11:45:19.063Z,6.70
2023-03-03T11:47:53.624Z,6.80
2023-03-03T11:50:24.761Z,6.90
2023-03-03T11:52:59.303Z,7.00
2023-03-03T11:55:31.728Z,7.10
2023-03-03T11:58:15.044Z,7.20
2023-03-03T12:00:48.745Z,7.30
2023-03-03T12:03:26.746Z,7.30
2023-03-03T12:06:13.571Z,7.30
2023-03-03T12:08:57.483Z,7.40
2023-03-03T12:11:28.566Z,7.30
2023-03-03T12:14:03.978Z,7.40
2023-03-03T12:16:45.003Z,7.40
2023-03-03T12:19:36.357Z,7.50
2023-03-03T12:22:14.840Z,7.50
2023-03-03T12:24:57.320Z,7.60
2023-03-03T12:27:35.646Z,7.70
2023-03-03T12:30:17.702Z,7.80
2023-03-03T12:32:58.412Z,8.00
2023-03-03T12:35:35.139Z,8.20
2023-03-03T12:38:10.909Z,8.40
2023-03-03T12:40:44.571Z,8.60
2023-03-03T12:43:22.581Z,8.70
2023-03-03T12:46:01.404Z,8.80
2023-03-03T12:48:37.585Z,8.80
2023-03-03T12:51:11.907Z,8.90
2023-03-03T12:53:58.422Z,8.90
2023-03-03T12:56:32.878Z,8.90
2023-03-03T12:59:05.690Z,8.80
2023-03-03T13:01:49.878Z,8.70
2023-03-03T13:04:32.900Z,8.60
2023-03-03T13:07:06.499Z,8.50
2023-03-03T13:09:45.199Z,8.50
2023-03-03T13:12:31.411Z,8.60
2023-03-03T13:15:06.244Z,8.70
2023-03-03T13:17:41.353Z,8.70
2023-03-03T13:20:21.434Z,8.70
2023-03-03T13:22:56.465Z,8.70
2023-03-03T13:25:40.428Z,8.50
2023-03-03T13:28:16.570Z,8.40
2023-03-03T13:30:49.454Z,8.40
2023-03-03T13:33:26.467Z,8.40
2023-03-03T13:35:57.564Z,8.40
2023-03-03T13:38:30.706Z,8.30
2023-03-03T13:41:06.219Z,8.10
2023-03-03T13:43:42.212Z,8.00
2023-03-03T13:46:17.099Z,8.00
2023-03-03T13:49:08.300Z,8.10
2023-03-03T13:51:46.124Z,8.10
2023-03-03T13:54:27.283Z,8.20
2023-03-03T13:57:18.650Z,8.10
2023-03-03T13:59:59.620Z,8.10
2023-03-03T14:02:48.494Z,8.00
2023-03-03T14:05:24.532Z,7.80
2023-03-03T14:07:58.736Z,7.70
2023-03-03T14:10:32.534Z,7.70
2023-03-03T14:13:05.633Z,7.70
2023-03-03T14:15:37.660Z,7.60
2023-03-03T14:18:25.829Z,7.70
2023-03-03T14:20:57.995Z,7.60
2023-03-03T14:23:32.066Z,7.50
2023-03-03T14:26:06.562Z,7.50
2023-03-03T14:28:40.832Z,7.50
2023-03-03T14:31:19.313Z,7.50
2023-03-03T14:33:58.801Z,7.40
2023-03-03T14:36:33.335Z,7.30
2023-03-03T14:39:02.089Z,7.30
2023-03-03T14:41:40.215Z,7.30
2023-03-03T14:44:26.901Z,7.40
2023-03-03T14:47:22.629Z,7.40
2023-03-03T14:49:51.844Z,7.40
2023-03-03T14:52:29.534Z,7.40
2023-03-03T14:55:00.230Z,7.50
2023-03-03T14:57:46.272Z,7.50
2023-03-03T15:00:31.118Z,7.50
2023-03-03T15:03:19.017Z,7.60
2023-03-03T15:05:50.777Z,7.60
2023-03-03T15:08:32.260Z,7.60
2023-03-03T15:11:15.002Z,7.60
2023-03-03T15:13:42.987Z,7.60
2023-03-03T15:16:17.627Z,7.60
2023-03-03T15:19:11.667Z,7.50
2023-03-03T15:21:46.943Z,7.40
2023-03-03T15:24:22.567Z,7.40
2023-03-03T15:26:55.163Z,7.40
2023-03-03T15:29:31.625Z,7.40
2023-03-03T15:32:07.471Z,7.30
2023-03-03T15:34:40.936Z,7.30
2023-03-03T15:37:25.419Z,7.20
2023-03-03T15:39:59.888Z,7.10
2023-03-03T15:42:35.793Z,7.00
2023-03-03T15:45:13.181Z,6.90
2023-03-03T15:47:58.605Z,6.80
2023-03-03T15:50:36.300Z,6.70
2023-03-03T15:53:18.687Z,6.60
2023-03-03T15:56:00.332Z,6.50
2023-03-03T15:58:53.937Z,6.40
2023-03-03T16:01:27.687Z,6.30
2023-03-03T16:03:58.847Z,6.30
2023-03-03T16:06:39.252Z,6.20
2023-03-03T16:09:20.139Z,6.10
2023-03-03T16:11:55.766Z,6.00
2023-03-03T16:14:53.553Z,6.00
2023-03-03T16:17:29.962Z,6.00
2023-03-03T16:20:06.286Z,5.90
2023-03-03T16:22:49.927Z,5.80
2023-03-03T16:25:32.420Z,5.80
2023-03-03T16:28:07.205Z,5.70
2023-03-03T16:30:40.019Z,5.60
2023-03-03T16:33:20.468Z,5.60
2023-03-03T16:35:57.159Z,5.50
2023-03-03T16:38:31.285Z,5.40
2023-03-03T16:41:01.902Z,5.30
2023-03-03T16:43:41.315Z,5.30
2023-03-03T16:46:22.718Z,5.20
2023-03-03T16:48:58.210Z,5.10
2023-03-03T16:51:35.791Z,5.10
2023-03-03T16:54:09.145Z,5.00
2023-03-03T16:56:44.341Z,4.90
2023-03-03T16:59:43.993Z,4.90
2023-03-03T17:02:47.933Z,4.80
2023-03-03T17:05:25.899Z,4.70
2023-03-03T17:08:11.567Z,4.70
2023-03-03T17:10:43.510Z,4.60
2023-03-03T17:13:47.049Z,4.50
2023-03-03T17:16:23.919Z,4.50
2023-03-03T17:19:03.735Z,4.50
2023-03-03T17:21:47.410Z,4.40
2023-03-03T17:24:24.921Z,4.40
2023-03-03T17:27:04.721Z,4.30
2023-03-03T17:29:46.943Z,4.20
2023-03-03T17:32:30.380Z,4.10
2023-03-03T17:35:15.690Z,4.10
2023-03-03T17:37:55.022Z,4.00
2023-03-03T17:40:34.165Z,4.00
2023-03-03T17:43:06.146Z,3.90
2023-03-03T17:45:38.802Z,3.90
2023-03-03T17:48:24.822Z,3.80
2023-03-03T17:51:20.539Z,3.70
2023-03-03T17:54:13.363Z,3.70
2023-03-03T17:56:48.393Z,3.60
2023-03-03T17:59:37.925Z,3.50
2023-03-03T18:02:41.267Z,3.50
2023-03-03T18:05:30.816Z,3.40
2023-03-03T18:08:16.233Z,3.40
2023-03-03T18:11:16.547Z,3.40
2023-03-03T18:14:16.352Z,3.30
2023-03-03T18:17:12.150Z,3.30
2023-03-03T18:20:09.263Z,3.20
2023-03-03T18:22:43.958Z,3.20
2023-03-03T18:25:14.776Z,3.10
2023-03-03T18:27:45.450Z,3.10
2023-03-03T18:30:49.295Z,3.10
2023-03-03T18:33:18.047Z,3.00
2023-03-03T18:35:49.374Z,3.00
2023-03-03T18:38:34.636Z,2.90
2023-03-03T18:41:03.662Z,2.90
2023-03-03T18:43:55.230Z,2.90
2023-03-03T18:46:49.442Z,2.80
2023-03-03T18:49:18.553Z,2.80
2023-03-03T18:52:13.786Z,2.80
2023-03-03T18:54:43.629Z,2.70
2023-03-03T18:57:29.842Z,2.70
2023-03-03T19:00:11.175Z,2.70
2023-03-03T19:02:46.338Z,2.60
2023-03-03T19:05:23.290Z,2.60
2023-03-03T19:07:58.132Z,2.60
2023-03-03T19:11:02.803Z,2.50
2023-03-03T19:13:49.789Z,2.50
2023-03-03T19:16:37.813Z,2.50
2023-03-03T19:19:14.246Z,2.40
2023-03-03T19:21:43.917Z,2.40
2023-03-03T19:24:30.680Z,2.40
2023-03-03T19:27:15.824Z,2.40
2023-03-03T19:30:20.904Z,2.30
2023-03-03T19:33:32.369Z,2.30
2023-03-03T19:36:29.392Z,2.20
2023-03-03T19:39:07.014Z,2.20
2023-03-03T19:41:55.178Z,2.10
2023-03-03T19:44:36.162Z,2.10
2023-03-03T19:47:11.577Z,2.10
2023-03-03T19:49:52.479Z,2.00
2023-03-03T19:52:28.638Z,2.00
2023-03-03T19:55:14.048Z,2.00
2023-03-03T19:57:51.583Z,1.90
2023-03-03T20:00:27.743Z,1.90
2023-03-03T20:03:24.797Z,1.90
2023-03-03T20:05:57.607Z,1.90
2023-03-03T20:08:33.207Z,1.90
2023-03-03T20:11:07.631Z,1.80
2023-03-03T20:13:50.057Z,1.80
2023-03-03T20:16:31.742Z,1.80
2023-03-03T20:19:24.461Z,1.80
2023-03-03T20:22:05.433Z,1.80
2023-03-03T20:24:51.144Z,1.80
2023-03-03T20:27:21.481Z,1.80
2023-03-03T20:30:05.995Z,1.80
2023-03-03T20:32:47.948Z,1.80
2023-03-03T20:35:29.395Z,1.80
2023-03-03T20:38:08.361Z,1.80
2023-03-03T20:40:44.627Z,1.70
2023-03-03T20:43:23.843Z,1.70
2023-03-03T20:46:00.864Z,1.70
2023-03-03T20:48:52.808Z,1.70
2023-03-03T20:51:29.626Z,1.70
2023-03-03T20:54:09.105Z,1.70
2023-03-03T20:56:43.838Z,1.70
2023-03-03T20:59:21.571Z,1.80
2023-03-03T21:01:54.404Z,1.80
2023-03-03T21:04:25.630Z,1.80
2023-03-03T21:06:54.970Z,1.80
2023-03-03T21:09:31.631Z,1.90
2023-03-03T21:12:01.461Z,1.90
2023-03-03T21:14:32.351Z,2.00
2023-03-03T21:17:02.673Z,2.00
2023-03-03T21:19:31.804Z,2.10
2023-03-03T21:22:02.848Z,2.10
2023-03-03T21:24:53.439Z,2.10
2023-03-03T21:27:30.423Z,2.20
2023-03-03T21:30:10.980Z,2.20
2023-03-03T21:32:42.026Z,2.30
2023-03-03T21:35:12.207Z,2.30
2023-03-03T21:37:50.382Z,2.40
2023-03-03T21:40:23.628Z,2.40
2023-03-03T21:42:52.862Z,2.40
2023-03-03T21:45:21.335Z,2.50
2023-03-03T21:47:49.256Z,2.50
2023-03-03T21:50:20.237Z,2.50
2023-03-03T21:52:49.878Z,2.60
2023-03-03T21:55:17.966Z,2.60
2023-03-03T21:57:45.819Z,2.70
2023-03-03T22:00:14.632Z,2.70
2023-03-03T22:02:42.515Z,2.70
2023-03-03T22:05:10.635Z,2.80
2023-03-03T22:07:38.556Z,2.80
2023-03-03T22:10:10.005Z,2.80
2023-03-03T22:12:38.002Z,2.80
2023-03-03T22:15:06.947Z,2.80
2023-03-03T22:17:34.894Z,2.90
2023-03-03T22:20:03.034Z,2.90
2023-03-03T22:22:30.918Z,2.90
2023-03-03T22:24:58.811Z,2.90
2023-03-03T22:27:28.093Z,2.90
2023-03-03T22:29:56.015Z,2.80
2023-03-03T22:32:23.936Z,2.90
2023-03-03T22:34:51.792Z,2.80
2023-03-03T22:37:19.730Z,2.90
2023-03-03T22:39:47.673Z,2.80
2023-03-03T22:42:15.551Z,2.90
2023-03-03T22:44:45.968Z,2.90
2023-03-03T22:47:13.958Z,2.90
2023-03-03T22:49:42.616Z,2.90
2023-03-03T22:52:10.586Z,2.90
2023-03-03T22:54:38.489Z,2.90
2023-03-03T22:57:06.349Z,2.90
2023-03-03T22:59:34.610Z,2.90
2023-03-03T23:02:03.982Z,2.90
2023-03-03T23:04:32.949Z,2.90
2023-03-03T23:07:01.387Z,2.90
2023-03-03T23:09:29.244Z,2.90
2023-03-03T23:11:57.178Z,2.80
2023-03-03T23:14:26.237Z,2.80
2023-03-03T23:16:54.462Z,2.90
2023-03-03T23:19:24.403Z,2.80
2023-03-03T23:21:52.285Z,2.80
2023-03-03T23:24:20.213Z,2.90
2023-03-03T23:26:51.698Z,2.90
2023-03-03T23:29:19.597Z,2.90
2023-03-03T23:31:47.499Z,2.90
2023-03-03T23:34:16.455Z,2.90
2023-03-03T23:36:45.822Z,2.90
2023-03-03T23:39:13.771Z,2.90
2023-03-03T23:41:41.676Z,3.00
2023-03-03T23:44:09.676Z,3.00
2023-03-03T23:46:37.936Z,2.90
2023-03-03T23:49:05.940Z,3.00
2023-03-03T23:51:33.890Z,3.00
2023-03-03T23:54:03.125Z,3.00
2023-03-03T23:56:31.072Z,3.00
2023-03-03T23:58:58.985Z,3.00
